Decoded Metar for PASM (SAINT MARYS in AK, USA) (IATA:KSM) | Meteo·Mobile Aviation Weather
aviador You're here:

PASM Decoded Metar

SAINT MARYS in AK, USA
Report Time2019-06-17 15:02:00
UTC Time2019-06-17 15:21:31
Flight Rules vfr VFR
Wind360° at 05 kt
W.Decomp.*RWY 35: 5.0 kt HW 0.2 kt LCW
RWY 06: 1.5 kt HW 4.8 kt LCW
Visibility9999 m
Phenomena:N/A
Clouds:Overcast 080 Hf
Expected CloudBase > 1,200 ft AGL from Temp-Dew spread
Ceiling8,000 ft
Temp11°C (ISA -3)
Dew Point08°C (82% RH)
AAT8.7°C
QNH1008 hPa
Density Alt213 ft
Elevation302 ft
Report Wrong Elevation
Raw Report
PASM 171502Z AUTO 36005KT 10SM OVC080 11/08 A2976 RMK AO2 SLP084
T01110083 55002=

Extra information for PASM:More info

Metar Taf Metar & Taf Last 4 Metars F.Rules Stats Wind Profile Meteogram Temp Stats Airport Information Weather charts Add Link Nearby VenuesMetar ALERT Operation Metar Decoded Social comments

AIRNAV info for PASM